Terminal Aerodrome Forecast
Issued by NWS

Home | Current Version | Previous Version | Text Only | Print | Product List | Glossary On
Versions: 1 2 3 4 5 6 7 8 9 10 11 12
545
FTUS43 KICT 271133
TAFHUT
TAF
KHUT 271133Z 2712/2812 36007KT P6SM VCTS BKN050CB
     FM271400 15013KT P6SM SCT030 BKN045
     FM272100 35019G27KT P6SM BKN030
     FM280000 34013KT P6SM SCT045
     FM280100 34014KT P6SM BKN035
     FM280800 33010KT P6SM SCT100=

USA.gov is the U.S. government's official web portal to all federal, state and local government web resources and services.